Pagina principale
METAR-TAF:

METAR-TAF

Aeroporti :

Aeroporto di Stoccarda

Stoccarda, Germania

latitudine: 48-41N, longitudine: 009-13E, altezza: 396 m

Osservazione

Il bollettino è stato emesso 25 minuti fa, alle 05:20 UTC
Vento 2 kt da direzioni variabili
Temperature 2°C
Umidità 93%
Pressione 1005 hPa
Visibilità 10 km o più
Nuvoloso ad un'altezza di 2300 ft
Nubi sparse ad un'altezza di 4000 ft

METAR: EDDS 180520Z VRB02KT 9999 BKN023 SCT040 02/01 Q1005 NOSIG

Ora: 06:45 (05:45 UTC)

Previsione

Il bollettino è stato emesso 45 minuti fa, alle 05:00 UTC
Previsione valida dal 18 alle 06 UTC al 19 alle 06 UTC
Vento 3 kt da direzioni variabili
Visibilità 10 km o più
Nuvoloso ad un'altezza di 2500 ft
Evoluzione graduale
dal 18 alle 07 UTC al 18 alle 11 UTC
Vento 8 kt da sud/sud-ovest
Evoluzione graduale
dal 19 alle 00 UTC al 19 alle 03 UTC
Vento 3 kt da direzioni variabili

TAF: EDDS 180500Z 1806/1906 VRB03KT 9999 BKN025 BECMG 1807/1811 20008KT BECMG 1900/1903 VRB03KT

Osservazioni e previsioni meteorologiche di più di 4000 aeroporti (messaggi METAR e TAF).

Le stazioni disponibili sono rappresentate dai dischi gialli e rossi sulla carta.

Puntare il mouse per vedere il nome della stazione.

Clicca sopra per visualizzare le osservazioni e previsioni meteorologiche.

Per cambiare la mappa : fare clic sui pulsanti verdi con una croce nera per ingrandire, il pulsante verde con un trattino per diminuire, o sulla freccia verde per le mappe adiacenti.


METAR-TAF: